createdAt,value
2023-01-21T00:01:22.070Z,-4.30
2023-01-21T00:03:51.954Z,-4.40
2023-01-21T00:06:20.276Z,-4.40
2023-01-21T00:08:48.794Z,-4.40
2023-01-21T00:11:17.426Z,-4.40
2023-01-21T00:13:46.497Z,-4.50
2023-01-21T00:16:15.431Z,-4.50
2023-01-21T00:18:43.866Z,-4.50
2023-01-21T00:21:14.740Z,-4.50
2023-01-21T00:23:43.712Z,-4.50
2023-01-21T00:26:12.998Z,-4.60
2023-01-21T00:28:43.881Z,-4.60
2023-01-21T00:31:13.286Z,-4.60
2023-01-21T00:33:41.807Z,-4.60
2023-01-21T00:36:12.503Z,-4.60
2023-01-21T00:38:42.634Z,-4.70
2023-01-21T00:41:12.860Z,-4.70
2023-01-21T00:43:44.068Z,-4.70
2023-01-21T00:46:12.964Z,-4.80
2023-01-21T00:48:42.270Z,-4.80
2023-01-21T00:51:10.949Z,-4.80
2023-01-21T00:53:43.255Z,-4.80
2023-01-21T00:56:13.862Z,-4.80
2023-01-21T00:58:45.919Z,-4.90
2023-01-21T01:01:20.918Z,-4.90
2023-01-21T01:03:50.970Z,-4.90
2023-01-21T01:06:24.296Z,-4.90
2023-01-21T01:08:58.021Z,-4.90
2023-01-21T01:11:27.937Z,-4.90
2023-01-21T01:13:56.703Z,-4.90
2023-01-21T01:16:25.408Z,-4.90
2023-01-21T01:18:53.933Z,-4.90
2023-01-21T01:21:23.369Z,-5.00
2023-01-21T01:23:54.863Z,-5.00
2023-01-21T01:26:23.795Z,-5.10
2023-01-21T01:28:52.255Z,-5.10
2023-01-21T01:31:22.061Z,-5.10
2023-01-21T01:33:50.863Z,-5.10
2023-01-21T01:36:21.204Z,-5.10
2023-01-21T01:38:49.589Z,-5.10
2023-01-21T01:41:21.289Z,-5.10
2023-01-21T01:43:56.370Z,-5.10
2023-01-21T01:46:25.599Z,-5.20
2023-01-21T01:48:59.609Z,-5.20
2023-01-21T01:51:41.625Z,-5.20
2023-01-21T01:54:12.581Z,-5.30
2023-01-21T01:56:47.022Z,-5.30
2023-01-21T01:59:16.438Z,-5.30
2023-01-21T02:01:45.002Z,-5.30
2023-01-21T02:04:30.919Z,-5.30
2023-01-21T02:07:00.049Z,-5.40
2023-01-21T02:09:30.054Z,-5.40
2023-01-21T02:12:00.822Z,-5.40
2023-01-21T02:14:30.887Z,-5.40
2023-01-21T02:17:14.510Z,-5.40
2023-01-21T02:20:22.625Z,-5.40
2023-01-21T02:23:00.200Z,-5.40
2023-01-21T02:26:13.528Z,-5.30
2023-01-21T02:29:14.505Z,-5.20
2023-01-21T02:32:11.018Z,-5.20
2023-01-21T02:34:50.386Z,-5.20
2023-01-21T02:37:27.410Z,-5.20
2023-01-21T02:40:12.823Z,-5.20
2023-01-21T02:42:46.556Z,-5.20
2023-01-21T02:45:25.061Z,-5.30
2023-01-21T02:48:05.895Z,-5.30
2023-01-21T02:50:37.877Z,-5.30
2023-01-21T02:53:06.829Z,-5.40
2023-01-21T02:55:37.556Z,-5.40
2023-01-21T02:58:09.387Z,-5.40
2023-01-21T03:00:52.105Z,-5.40
2023-01-21T03:03:45.967Z,-5.40
2023-01-21T03:06:35.252Z,-5.40
2023-01-21T03:09:10.668Z,-5.40
2023-01-21T03:11:39.203Z,-5.40
2023-01-21T03:14:34.570Z,-5.50
2023-01-21T03:17:09.381Z,-5.50
2023-01-21T03:19:43.084Z,-5.50
2023-01-21T03:22:16.965Z,-5.50
2023-01-21T03:24:51.291Z,-5.60
2023-01-21T03:27:23.538Z,-5.60
2023-01-21T03:29:56.620Z,-5.50
2023-01-21T03:32:26.789Z,-5.50
2023-01-21T03:34:57.149Z,-5.50
2023-01-21T03:37:31.059Z,-5.50
2023-01-21T03:40:11.291Z,-5.50
2023-01-21T03:42:39.813Z,-5.60
2023-01-21T03:45:09.703Z,-5.60
2023-01-21T03:47:45.692Z,-5.50
2023-01-21T03:50:21.038Z,-5.40
2023-01-21T03:52:51.194Z,-5.40
2023-01-21T03:55:20.009Z,-5.30
2023-01-21T03:57:48.288Z,-5.30
2023-01-21T04:00:17.699Z,-5.10
2023-01-21T04:02:46.248Z,-5.00
2023-01-21T04:05:15.088Z,-4.90
2023-01-21T04:07:43.389Z,-4.90
2023-01-21T04:10:13.438Z,-4.70
2023-01-21T04:12:41.777Z,-4.70
2023-01-21T04:15:11.503Z,-4.60
2023-01-21T04:17:39.742Z,-4.50
2023-01-21T04:20:10.257Z,-4.40
2023-01-21T04:22:38.755Z,-4.30
2023-01-21T04:25:07.499Z,-4.20
2023-01-21T04:27:37.164Z,-4.10
2023-01-21T04:30:06.131Z,-4.00
2023-01-21T04:32:34.625Z,-3.90
2023-01-21T04:35:03.098Z,-3.90
2023-01-21T04:37:31.632Z,-3.80
2023-01-21T04:39:59.900Z,-3.80
2023-01-21T04:42:28.248Z,-3.70
2023-01-21T04:44:57.928Z,-3.60
2023-01-21T04:47:26.156Z,-3.60
2023-01-21T04:49:54.550Z,-3.50
2023-01-21T04:52:22.751Z,-3.40
2023-01-21T04:54:51.034Z,-3.40
2023-01-21T04:57:19.269Z,-3.30
2023-01-21T04:59:47.547Z,-3.30
2023-01-21T05:02:17.195Z,-3.20
2023-01-21T05:04:45.510Z,-3.10
2023-01-21T05:07:14.882Z,-3.10
2023-01-21T05:09:43.138Z,-3.00
2023-01-21T05:12:11.807Z,-3.00
2023-01-21T05:14:40.087Z,-3.00
2023-01-21T05:17:08.370Z,-3.00
2023-01-21T05:19:38.219Z,-2.90
2023-01-21T05:22:06.549Z,-2.90
2023-01-21T05:24:34.805Z,-2.90
2023-01-21T05:27:03.100Z,-2.90
2023-01-21T05:29:31.500Z,-2.80
2023-01-21T05:31:59.887Z,-2.80
2023-01-21T05:34:28.181Z,-2.80
2023-01-21T05:36:57.868Z,-2.70
2023-01-21T05:39:26.349Z,-2.70
2023-01-21T05:41:54.878Z,-2.60
2023-01-21T05:44:23.288Z,-2.60
2023-01-21T05:46:51.619Z,-2.50
2023-01-21T05:49:20.049Z,-2.50
2023-01-21T05:51:48.367Z,-2.40
2023-01-21T05:54:18.093Z,-2.40
2023-01-21T05:56:46.594Z,-2.30
2023-01-21T05:59:14.949Z,-2.30
2023-01-21T06:01:43.380Z,-2.30
2023-01-21T06:04:11.742Z,-2.20
2023-01-21T06:06:40.720Z,-2.10
2023-01-21T06:09:09.178Z,-2.10
2023-01-21T06:11:38.952Z,-2.10
2023-01-21T06:14:07.236Z,-2.10
2023-01-21T06:16:35.498Z,-2.00
2023-01-21T06:19:03.799Z,-2.00
2023-01-21T06:21:32.190Z,-2.00
2023-01-21T06:24:00.780Z,-2.00
2023-01-21T06:26:29.139Z,-2.00
2023-01-21T06:28:59.119Z,-2.00
2023-01-21T06:31:27.705Z,-1.90
2023-01-21T06:33:56.106Z,-1.90
2023-01-21T06:36:24.472Z,-1.80
2023-01-21T06:38:52.803Z,-1.80
2023-01-21T06:41:21.068Z,-1.80
2023-01-21T06:43:49.354Z,-1.70
2023-01-21T06:46:20.249Z,-1.70
2023-01-21T06:48:48.642Z,-1.60
2023-01-21T06:51:17.195Z,-1.60
2023-01-21T06:53:45.413Z,-1.50
2023-01-21T06:56:13.730Z,-1.50
2023-01-21T06:58:42.110Z,-1.50
2023-01-21T07:01:10.427Z,-1.50
2023-01-21T07:03:40.084Z,-1.40
2023-01-21T07:06:08.719Z,-1.40
2023-01-21T07:08:36.970Z,-1.40
2023-01-21T07:11:05.498Z,-1.40
2023-01-21T07:13:33.838Z,-1.40
2023-01-21T07:16:03.239Z,-1.30
2023-01-21T07:18:33.065Z,-1.30
2023-01-21T07:21:02.811Z,-1.30
2023-01-21T07:23:31.171Z,-1.30
2023-01-21T07:25:59.590Z,-1.30
2023-01-21T07:28:27.802Z,-1.30
2023-01-21T07:30:56.317Z,-1.20
2023-01-21T07:33:24.601Z,-1.20
2023-01-21T07:35:53.088Z,-1.20
2023-01-21T07:38:22.859Z,-1.20
2023-01-21T07:40:51.381Z,-1.20
2023-01-21T07:43:20.524Z,-1.10
2023-01-21T07:45:49.040Z,-1.10
2023-01-21T07:48:17.552Z,-1.10
2023-01-21T07:50:45.949Z,-1.10
2023-01-21T07:53:14.817Z,-1.10
2023-01-21T07:55:44.645Z,-1.00
2023-01-21T07:58:13.096Z,-1.00
2023-01-21T08:00:41.540Z,-1.00
2023-01-21T08:03:10.007Z,-0.90
2023-01-21T08:05:38.418Z,-0.90
2023-01-21T08:08:06.850Z,-0.90
2023-01-21T08:10:35.310Z,-0.90
2023-01-21T08:13:05.060Z,-0.90
2023-01-21T08:15:33.467Z,-0.80
2023-01-21T08:18:04.818Z,-0.80
2023-01-21T08:20:33.574Z,-0.70
2023-01-21T08:23:02.240Z,-0.70
2023-01-21T08:25:30.617Z,-0.70
2023-01-21T08:28:00.326Z,-0.70
2023-01-21T08:30:30.428Z,-0.60
2023-01-21T08:32:59.106Z,-0.60
2023-01-21T08:35:27.497Z,-0.60
2023-01-21T08:37:57.472Z,-0.50
2023-01-21T08:40:27.403Z,-0.50
2023-01-21T08:42:59.692Z,-0.40
2023-01-21T08:45:30.250Z,-0.40
2023-01-21T08:47:58.703Z,-0.30
2023-01-21T08:50:27.150Z,-0.30
2023-01-21T08:52:56.898Z,-0.20
2023-01-21T08:55:26.886Z,-0.20
2023-01-21T08:57:56.098Z,-0.10
2023-01-21T09:00:25.186Z,-0.10
2023-01-21T09:02:55.017Z,0.00
2023-01-21T09:05:23.536Z,0.00
2023-01-21T09:07:51.909Z,0.10
2023-01-21T09:10:34.436Z,0.10
2023-01-21T09:13:06.179Z,0.20
2023-01-21T09:15:39.082Z,0.20
2023-01-21T09:18:08.937Z,0.30
2023-01-21T09:20:37.311Z,0.30
2023-01-21T09:23:24.403Z,0.30
2023-01-21T09:25:53.617Z,0.40
2023-01-21T09:28:23.845Z,0.40
2023-01-21T09:30:58.141Z,0.40
2023-01-21T09:33:28.311Z,0.50
2023-01-21T09:35:57.360Z,0.50
2023-01-21T09:38:25.848Z,0.60
2023-01-21T09:41:03.671Z,0.60
2023-01-21T09:43:39.184Z,0.60
2023-01-21T09:46:15.586Z,0.60
2023-01-21T09:48:49.141Z,0.60
2023-01-21T09:51:24.512Z,0.60
2023-01-21T09:53:56.384Z,0.60
2023-01-21T09:56:32.596Z,0.60
2023-01-21T09:59:07.004Z,0.60
2023-01-21T10:01:38.077Z,0.60
2023-01-21T10:04:32.730Z,0.60
2023-01-21T10:07:07.817Z,0.60
2023-01-21T10:09:52.878Z,0.70
2023-01-21T10:12:41.340Z,0.70
2023-01-21T10:15:40.936Z,0.70
2023-01-21T10:18:14.041Z,0.80
2023-01-21T10:20:50.909Z,0.80
2023-01-21T10:23:25.169Z,0.80
2023-01-21T10:25:53.537Z,0.80
2023-01-21T10:28:26.183Z,0.80
2023-01-21T10:30:55.802Z,0.90
2023-01-21T10:33:26.008Z,0.90
2023-01-21T10:36:26.660Z,0.90
2023-01-21T10:39:05.728Z,1.00
2023-01-21T10:41:51.318Z,1.00
2023-01-21T10:44:25.872Z,1.10
2023-01-21T10:47:02.304Z,1.10
2023-01-21T10:49:47.689Z,1.10
2023-01-21T10:52:21.751Z,1.10
2023-01-21T10:54:58.320Z,1.20
2023-01-21T10:57:45.300Z,1.20
2023-01-21T11:00:20.878Z,1.20
2023-01-21T11:02:54.477Z,1.30
2023-01-21T11:05:25.674Z,1.30
2023-01-21T11:07:54.922Z,1.30
2023-01-21T11:10:27.728Z,1.30
2023-01-21T11:12:59.893Z,1.30
2023-01-21T11:15:34.668Z,1.30
2023-01-21T11:18:28.747Z,1.30
2023-01-21T11:21:00.476Z,1.30
2023-01-21T11:23:31.561Z,1.30
2023-01-21T11:26:10.079Z,1.40
2023-01-21T11:28:38.652Z,1.40
2023-01-21T11:31:12.784Z,1.50
2023-01-21T11:33:42.458Z,1.60
2023-01-21T11:36:27.645Z,1.60
2023-01-21T11:39:06.648Z,1.70
2023-01-21T11:41:37.269Z,1.70
2023-01-21T11:44:18.600Z,1.70
2023-01-21T11:46:50.347Z,1.70
2023-01-21T11:49:28.205Z,1.70
2023-01-21T11:52:16.744Z,1.70
2023-01-21T11:54:46.458Z,1.70
2023-01-21T11:57:40.985Z,1.80
2023-01-21T12:00:20.809Z,1.80
2023-01-21T12:02:53.047Z,1.90
2023-01-21T12:05:28.359Z,1.90
2023-01-21T12:07:59.457Z,2.00
2023-01-21T12:10:39.728Z,2.00
2023-01-21T12:13:21.577Z,2.00
2023-01-21T12:16:23.280Z,2.00
2023-01-21T12:19:18.363Z,2.00
2023-01-21T12:22:08.099Z,2.00
2023-01-21T12:24:51.418Z,2.00
2023-01-21T12:27:31.253Z,2.10
2023-01-21T12:30:13.234Z,2.10
2023-01-21T12:32:47.155Z,2.10
2023-01-21T12:35:28.033Z,2.20
2023-01-21T12:38:01.927Z,2.30
2023-01-21T12:40:34.350Z,2.30
2023-01-21T12:43:08.408Z,2.30
2023-01-21T12:45:46.239Z,2.30
2023-01-21T12:48:19.966Z,2.30
2023-01-21T12:50:53.167Z,2.30
2023-01-21T12:53:29.216Z,2.30
2023-01-21T12:56:21.976Z,2.30
2023-01-21T12:58:56.351Z,2.30
2023-01-21T13:01:42.599Z,2.30
2023-01-21T13:04:39.506Z,2.40
2023-01-21T13:07:18.728Z,2.40
2023-01-21T13:09:54.810Z,2.40
2023-01-21T13:12:25.727Z,2.40
2023-01-21T13:15:00.110Z,2.40
2023-01-21T13:17:34.750Z,2.30
2023-01-21T13:20:14.451Z,2.30
2023-01-21T13:22:48.978Z,2.30
2023-01-21T13:25:29.550Z,2.30
2023-01-21T13:28:05.384Z,2.30
2023-01-21T13:30:41.535Z,2.30
2023-01-21T13:33:25.731Z,2.30
2023-01-21T13:36:04.006Z,2.30
2023-01-21T13:38:39.830Z,2.30
2023-01-21T13:41:18.531Z,2.20
2023-01-21T13:43:55.660Z,2.20
2023-01-21T13:46:40.226Z,2.20
2023-01-21T13:49:42.324Z,2.20
2023-01-21T13:52:18.427Z,2.20
2023-01-21T13:55:23.236Z,2.20
2023-01-21T13:58:07.748Z,2.20
2023-01-21T14:00:42.319Z,2.20
2023-01-21T14:03:18.338Z,2.20
2023-01-21T14:05:54.563Z,2.20
2023-01-21T14:08:31.163Z,2.20
2023-01-21T14:11:01.825Z,2.20
2023-01-21T14:14:15.007Z,2.30
2023-01-21T14:17:15.856Z,2.40
2023-01-21T14:20:16.682Z,2.40
2023-01-21T14:23:05.978Z,2.50
2023-01-21T14:25:49.308Z,2.50
2023-01-21T14:28:27.001Z,2.40
2023-01-21T14:31:05.920Z,2.40
2023-01-21T14:33:40.216Z,2.40
2023-01-21T14:36:14.469Z,2.30
2023-01-21T14:38:57.490Z,2.30
2023-01-21T14:41:26.163Z,2.20
2023-01-21T14:43:54.597Z,2.10
2023-01-21T14:46:29.633Z,2.10
2023-01-21T14:49:08.040Z,2.00
2023-01-21T14:51:38.956Z,2.00
2023-01-21T14:54:14.781Z,2.00
2023-01-21T14:56:54.151Z,1.90
2023-01-21T14:59:35.749Z,1.90
2023-01-21T15:02:18.983Z,1.90
2023-01-21T15:04:55.568Z,1.80
2023-01-21T15:07:29.903Z,1.80
2023-01-21T15:10:10.518Z,1.80
2023-01-21T15:12:42.866Z,1.70
2023-01-21T15:18:45.340Z,1.70
2023-01-21T15:21:35.232Z,1.70
2023-01-21T15:24:23.254Z,1.70
2023-01-21T15:27:18.358Z,1.70
2023-01-21T15:30:08.373Z,1.60
2023-01-21T15:32:39.096Z,1.60
2023-01-21T15:35:17.518Z,1.60
2023-01-21T15:37:48.459Z,1.60
2023-01-21T15:40:21.647Z,1.60
2023-01-21T15:42:59.527Z,1.50
2023-01-21T15:45:35.883Z,1.50
2023-01-21T15:48:45.862Z,1.50
2023-01-21T15:51:23.396Z,1.50
2023-01-21T15:54:19.415Z,1.40
2023-01-21T15:57:05.683Z,1.40
2023-01-21T16:00:15.291Z,1.40
2023-01-21T16:02:53.334Z,1.30
2023-01-21T16:05:35.139Z,1.30
2023-01-21T16:08:23.498Z,1.30
2023-01-21T16:11:02.886Z,1.30
2023-01-21T16:13:44.983Z,1.30
2023-01-21T16:16:33.518Z,1.30
2023-01-21T16:19:04.559Z,1.30
2023-01-21T16:21:35.767Z,1.20
2023-01-21T16:24:11.592Z,1.20
2023-01-21T16:26:40.122Z,1.20
2023-01-21T16:29:13.270Z,1.10
2023-01-21T16:31:59.284Z,1.10
2023-01-21T16:34:41.637Z,1.10
2023-01-21T16:37:14.538Z,1.10
2023-01-21T16:39:44.261Z,1.00
2023-01-21T16:42:26.029Z,1.00
2023-01-21T16:44:55.340Z,1.00
2023-01-21T16:47:28.163Z,1.00
2023-01-21T16:49:59.173Z,1.00
2023-01-21T16:52:28.639Z,1.00
2023-01-21T16:54:58.158Z,1.00
2023-01-21T16:57:31.714Z,0.90
2023-01-21T17:00:02.579Z,0.90
2023-01-21T17:02:34.484Z,0.90
2023-01-21T17:05:05.319Z,0.90
2023-01-21T17:07:36.595Z,0.90
2023-01-21T17:10:08.249Z,0.90
2023-01-21T17:12:37.808Z,0.90
2023-01-21T17:15:18.705Z,0.80
2023-01-21T17:17:48.757Z,0.90
2023-01-21T17:20:48.613Z,0.80
2023-01-21T17:23:20.197Z,0.80
2023-01-21T17:25:54.959Z,0.80
2023-01-21T17:28:31.138Z,0.90
2023-01-21T17:31:22.769Z,0.90
2023-01-21T17:34:18.582Z,0.90
2023-01-21T17:36:48.866Z,0.90
2023-01-21T17:39:56.781Z,0.90
2023-01-21T17:42:26.983Z,0.90
2023-01-21T17:44:59.524Z,0.90
2023-01-21T17:47:30.749Z,0.90
2023-01-21T17:50:05.182Z,0.90
2023-01-21T17:52:33.740Z,0.90
2023-01-21T17:55:28.399Z,0.90
2023-01-21T17:57:57.174Z,0.90
2023-01-21T18:00:31.613Z,0.90
2023-01-21T18:03:00.066Z,0.90
2023-01-21T18:05:30.229Z,1.00
2023-01-21T18:07:58.763Z,1.00
2023-01-21T18:10:29.328Z,1.00
2023-01-21T18:12:58.275Z,1.00
2023-01-21T18:15:27.505Z,1.00
2023-01-21T18:17:57.659Z,1.10
2023-01-21T18:20:27.897Z,1.10
2023-01-21T18:22:59.639Z,1.10
2023-01-21T18:25:29.067Z,1.10
2023-01-21T18:27:57.547Z,1.10
2023-01-21T18:30:28.067Z,1.10
2023-01-21T18:32:57.179Z,1.10
2023-01-21T18:35:29.774Z,1.10
2023-01-21T18:37:59.854Z,1.10
2023-01-21T18:40:28.585Z,1.10
2023-01-21T18:42:57.038Z,1.10
2023-01-21T18:45:28.997Z,1.10
2023-01-21T18:47:58.675Z,1.10
2023-01-21T18:50:30.595Z,1.20
2023-01-21T18:53:00.858Z,1.20
2023-01-21T18:55:31.046Z,1.20
2023-01-21T18:57:59.606Z,1.20
2023-01-21T19:00:29.465Z,1.20
2023-01-21T19:02:59.828Z,1.20
2023-01-21T19:05:34.075Z,1.10
2023-01-21T19:08:06.224Z,1.10
2023-01-21T19:10:34.630Z,1.10
2023-01-21T19:13:03.222Z,1.10
2023-01-21T19:15:32.426Z,1.10
2023-01-21T19:18:01.082Z,1.10
2023-01-21T19:20:30.533Z,1.10
2023-01-21T19:22:58.908Z,1.10
2023-01-21T19:25:28.897Z,1.10
2023-01-21T19:27:58.374Z,1.10
2023-01-21T19:30:28.707Z,1.10
2023-01-21T19:32:58.939Z,1.10
2023-01-21T19:35:32.200Z,1.10
2023-01-21T19:38:02.038Z,1.10
2023-01-21T19:40:32.748Z,1.10
2023-01-21T19:43:01.239Z,1.00
2023-01-21T19:45:30.569Z,1.00
2023-01-21T19:47:59.109Z,1.00
2023-01-21T19:50:28.658Z,1.00
2023-01-21T19:52:57.367Z,1.00
2023-01-21T19:55:26.841Z,1.00
2023-01-21T19:57:59.465Z,1.00
2023-01-21T20:00:29.582Z,1.00
2023-01-21T20:02:58.333Z,1.00
2023-01-21T20:05:28.847Z,1.00
2023-01-21T20:07:57.560Z,0.90
2023-01-21T20:10:27.749Z,0.90
2023-01-21T20:12:58.084Z,0.90
2023-01-21T20:15:31.847Z,0.90
2023-01-21T20:18:02.417Z,0.90
2023-01-21T20:20:32.270Z,0.90
2023-01-21T20:23:01.658Z,0.90
2023-01-21T20:25:39.002Z,0.90
2023-01-21T20:28:21.655Z,0.90
2023-01-21T20:30:51.233Z,0.90
2023-01-21T20:33:21.579Z,0.80
2023-01-21T20:35:52.045Z,0.80
2023-01-21T20:38:25.324Z,0.80
2023-01-21T20:40:53.748Z,0.80
2023-01-21T20:43:23.748Z,0.80
2023-01-21T20:45:53.532Z,0.80
2023-01-21T20:48:26.637Z,0.80
2023-01-21T20:50:55.502Z,0.80
2023-01-21T20:53:23.983Z,0.80
2023-01-21T20:55:53.520Z,0.80
2023-01-21T20:58:23.508Z,0.80
2023-01-21T21:00:52.093Z,0.80
2023-01-21T21:03:20.826Z,0.80
2023-01-21T21:05:50.312Z,0.80
2023-01-21T21:08:20.662Z,0.90
2023-01-21T21:10:51.568Z,0.90
2023-01-21T21:13:22.637Z,0.90
2023-01-21T21:15:54.198Z,0.90
2023-01-21T21:18:22.830Z,0.90
2023-01-21T21:20:53.062Z,0.90
2023-01-21T21:23:21.679Z,0.90
2023-01-21T21:25:50.152Z,0.90
2023-01-21T21:28:21.304Z,0.90
2023-01-21T21:30:50.017Z,0.90
2023-01-21T21:33:23.528Z,0.90
2023-01-21T21:35:52.976Z,0.90
2023-01-21T21:38:23.077Z,0.90
2023-01-21T21:40:53.263Z,0.90
2023-01-21T21:43:35.818Z,0.90
2023-01-21T21:46:26.571Z,0.90
2023-01-21T21:48:56.474Z,0.90
2023-01-21T21:51:25.382Z,0.90
2023-01-21T21:53:53.802Z,0.90
2023-01-21T21:56:23.858Z,0.90
2023-01-21T21:58:53.030Z,0.90
2023-01-21T22:01:23.511Z,0.80
2023-01-21T22:03:52.337Z,0.80
2023-01-21T22:06:23.629Z,0.80
2023-01-21T22:08:54.989Z,0.90
2023-01-21T22:11:24.336Z,0.80
2023-01-21T22:13:54.023Z,0.80
2023-01-21T22:16:24.910Z,0.90
2023-01-21T22:18:54.449Z,0.90
2023-01-21T22:21:26.049Z,0.90
2023-01-21T22:23:54.934Z,0.90
2023-01-21T22:26:25.007Z,0.90
2023-01-21T22:28:53.787Z,0.90
2023-01-21T22:31:24.528Z,0.90
2023-01-21T22:33:53.532Z,0.90
2023-01-21T22:36:24.983Z,0.90
2023-01-21T22:38:53.716Z,0.90
2023-01-21T22:41:23.541Z,0.90
2023-01-21T22:43:52.528Z,0.80
2023-01-21T22:46:23.547Z,0.80
2023-01-21T22:48:52.251Z,0.80
2023-01-21T22:51:21.442Z,0.80
2023-01-21T22:53:51.505Z,0.80
2023-01-21T22:56:31.405Z,0.80
2023-01-21T22:59:08.452Z,0.80
2023-01-21T23:01:36.957Z,0.80
2023-01-21T23:04:05.463Z,0.80
2023-01-21T23:06:35.166Z,0.80
2023-01-21T23:09:09.501Z,0.80
2023-01-21T23:11:41.674Z,0.70
2023-01-21T23:14:10.738Z,0.70
2023-01-21T23:16:39.347Z,0.70
2023-01-21T23:19:08.868Z,0.70
2023-01-21T23:21:38.490Z,0.70
2023-01-21T23:24:09.379Z,0.70
2023-01-21T23:26:38.069Z,0.70
2023-01-21T23:29:06.638Z,0.70
2023-01-21T23:31:35.412Z,0.70
2023-01-21T23:34:04.423Z,0.70
2023-01-21T23:36:32.933Z,0.70
2023-01-21T23:39:01.445Z,0.70
2023-01-21T23:41:32.389Z,0.70
2023-01-21T23:44:01.391Z,0.70
2023-01-21T23:46:30.082Z,0.80
2023-01-21T23:48:58.418Z,0.80
2023-01-21T23:51:26.788Z,0.70
2023-01-21T23:53:57.155Z,0.70
2023-01-21T23:56:26.667Z,0.70
2023-01-21T23:58:56.493Z,0.70
